Accueil
METAR-TAF:

METAR-TAF

Aéroports :

Figari, France

Aéroport de Figari Sud Corse

latitude: 41-30N, longitude: 009-06E, altitude: 26 m

Observation

Le bulletin a été fait il y a 39 minutes, à 06:00 UTC
Vent calme
Température 18°C
Humidité 83%
Pression 1019 hPa
Visibilité 10 km ou plus
pas de nuages en-dessous de 1500 mètres et pas de cumulonimbus.

METAR: LFKF 240600Z AUTO 00000KT CAVOK 18/15 Q1019 NOSIG

Heure: 08:39 (06:39 UTC)

Prévision

Le bulletin a été fait il y a 4 heures et 39 minutes, à 02:00 UTC
Prévision valable du 24 à 03 UTC au 25 à 03 UTC
Vent 4 kt de nord/nord-est
Visibilité 10 km ou plus
pas de nuages en-dessous de 1500 mètres et pas de cumulonimbus.
Temporairement
du 24 à 09 UTC au 24 à 17 UTC
Vent 10 kt de sud-ouest

TAF: LFKF 240200Z 2403/2503 02004KT CAVOK TEMPO 2409/2417 22010KT

Observations et prévisions météorologiques de plus de 4000 aéroports (messages METAR et TAF).

Les stations disponibles sont représentées par des disques jaunes et rouges sur la carte.

Passer la souris dessus pour voir le nom de la station.

Cliquer dessus pour voir les observations et prévisions météorologiques.

Pour changer de carte: cliquez sur les boutons verts avec une croix noire pour zoomer, sur le bouton vert avec un tiret pour effectuer un zoom arrière, ou sur les flèches vertes pour les cartes adjacentes.


METAR-TAF: